createdAt,value
2023-02-19T00:01:48.586Z,11.21
2023-02-19T00:04:52.538Z,11.13
2023-02-19T00:07:56.309Z,10.52
2023-02-19T00:11:00.277Z,10.62
2023-02-19T00:14:04.413Z,11.33
2023-02-19T00:17:08.442Z,10.02
2023-02-19T00:20:12.260Z,9.42
2023-02-19T00:23:16.311Z,10.67
2023-02-19T00:26:20.342Z,9.76
2023-02-19T00:29:24.301Z,9.82
2023-02-19T00:32:28.274Z,9.13
2023-02-19T00:35:32.200Z,9.35
2023-02-19T00:38:36.231Z,8.74
2023-02-19T00:41:40.139Z,8.96
2023-02-19T00:44:44.183Z,9.33
2023-02-19T00:47:48.119Z,9.56
2023-02-19T00:50:52.531Z,9.51
2023-02-19T00:53:56.294Z,9.37
2023-02-19T00:57:00.520Z,9.57
2023-02-19T01:00:04.443Z,9.61
2023-02-19T01:03:08.434Z,9.57
2023-02-19T01:06:12.407Z,9.53
2023-02-19T01:09:16.425Z,9.69
2023-02-19T01:12:20.433Z,9.88
2023-02-19T01:15:24.368Z,9.76
2023-02-19T01:18:28.228Z,8.95
2023-02-19T01:21:32.192Z,9.39
2023-02-19T01:24:36.269Z,9.19
2023-02-19T01:27:40.144Z,9.25
2023-02-19T01:30:44.058Z,9.08
2023-02-19T01:33:48.089Z,9.06
2023-02-19T01:36:52.210Z,9.32
2023-02-19T01:39:56.127Z,9.17
2023-02-19T01:42:59.969Z,9.89
2023-02-19T01:46:04.038Z,9.94
2023-02-19T01:49:08.138Z,10.33
2023-02-19T01:52:12.297Z,10.40
2023-02-19T01:55:16.142Z,10.97
2023-02-19T01:58:20.193Z,10.26
2023-02-19T02:01:24.280Z,10.93
2023-02-19T02:04:28.253Z,11.01
2023-02-19T02:07:32.241Z,10.47
2023-02-19T02:10:35.965Z,10.63
2023-02-19T02:13:39.791Z,10.82
2023-02-19T02:16:43.840Z,10.54
2023-02-19T02:19:47.900Z,10.61
2023-02-19T02:22:51.682Z,10.81
2023-02-19T02:25:55.529Z,10.86
2023-02-19T02:28:59.546Z,10.92
2023-02-19T02:32:03.826Z,11.03
2023-02-19T02:35:07.596Z,11.29
2023-02-19T02:38:11.231Z,11.20
2023-02-19T02:41:15.261Z,11.60
2023-02-19T02:44:19.271Z,11.57
2023-02-19T02:47:23.207Z,11.92
2023-02-19T02:50:27.138Z,12.77
2023-02-19T02:53:31.086Z,12.89
2023-02-19T02:56:35.065Z,13.19
2023-02-19T02:59:39.074Z,12.98
2023-02-19T03:02:42.936Z,12.68
2023-02-19T03:05:46.932Z,12.66
2023-02-19T03:08:50.962Z,11.84
2023-02-19T03:11:54.815Z,12.05
2023-02-19T03:14:58.719Z,11.95
2023-02-19T03:18:02.598Z,12.16
2023-02-19T03:21:06.374Z,12.20
2023-02-19T03:24:10.374Z,12.21
2023-02-19T03:27:14.402Z,11.97
2023-02-19T03:30:18.405Z,12.23
2023-02-19T03:33:22.280Z,11.93
2023-02-19T03:36:26.341Z,12.74
2023-02-19T03:39:30.365Z,12.67
2023-02-19T03:42:34.406Z,12.55
2023-02-19T03:45:38.237Z,13.00
2023-02-19T03:48:42.195Z,12.70
2023-02-19T03:51:46.153Z,11.99
2023-02-19T03:54:50.106Z,12.31
2023-02-19T03:57:54.047Z,12.47
2023-02-19T04:00:57.876Z,12.15
2023-02-19T04:04:02.086Z,12.37
2023-02-19T04:07:06.328Z,12.00
2023-02-19T04:10:10.262Z,12.11
2023-02-19T04:13:14.114Z,12.26
2023-02-19T04:16:18.031Z,11.00
2023-02-19T04:19:22.265Z,10.81
2023-02-19T04:22:26.283Z,10.84
2023-02-19T04:25:30.008Z,10.08
2023-02-19T04:28:33.808Z,9.43
2023-02-19T04:31:37.916Z,8.51
2023-02-19T04:34:41.949Z,7.83
2023-02-19T04:37:45.883Z,7.72
2023-02-19T04:40:49.864Z,8.08
2023-02-19T04:43:53.630Z,7.39
2023-02-19T04:46:57.772Z,7.60
2023-02-19T04:50:01.793Z,7.47
2023-02-19T04:53:05.620Z,7.45
2023-02-19T04:56:10.551Z,7.11
2023-02-19T04:59:14.424Z,7.16
2023-02-19T05:02:18.568Z,7.20
2023-02-19T05:05:22.506Z,7.18
2023-02-19T05:08:26.274Z,7.02
2023-02-19T05:11:30.166Z,6.94
2023-02-19T05:14:34.290Z,6.72
2023-02-19T05:17:38.282Z,6.98
2023-02-19T05:20:41.972Z,7.01
2023-02-19T05:23:45.814Z,6.72
2023-02-19T05:26:49.793Z,6.65
2023-02-19T05:29:53.954Z,6.68
2023-02-19T05:32:57.927Z,6.72
2023-02-19T05:36:01.815Z,6.55
2023-02-19T05:39:05.809Z,6.55
2023-02-19T05:42:09.811Z,6.93
2023-02-19T05:45:13.367Z,6.93
2023-02-19T05:48:17.219Z,6.59
2023-02-19T05:51:21.155Z,6.76
2023-02-19T05:54:25.335Z,6.80
2023-02-19T05:57:29.261Z,6.72
2023-02-19T06:00:33.113Z,6.76
2023-02-19T06:03:37.138Z,6.91
2023-02-19T06:06:41.061Z,6.67
2023-02-19T06:09:45.119Z,6.71
2023-02-19T06:12:49.103Z,6.64
2023-02-19T06:15:53.013Z,6.81
2023-02-19T06:18:58.511Z,7.00
2023-02-19T06:22:02.478Z,6.90
2023-02-19T06:25:06.557Z,6.99
2023-02-19T06:28:10.534Z,6.59
2023-02-19T06:31:14.876Z,6.92
2023-02-19T06:34:18.902Z,7.05
2023-02-19T06:37:22.937Z,8.17
2023-02-19T06:40:26.992Z,8.09
2023-02-19T06:43:30.716Z,8.65
2023-02-19T06:46:34.699Z,8.71
2023-02-19T06:49:38.490Z,8.74
2023-02-19T06:52:42.536Z,8.90
2023-02-19T06:55:46.485Z,8.88
2023-02-19T06:58:50.765Z,9.04
2023-02-19T07:01:54.867Z,9.16
2023-02-19T07:04:59.072Z,8.42
2023-02-19T07:08:03.158Z,8.36
2023-02-19T07:11:07.049Z,7.59
2023-02-19T07:14:10.801Z,7.57
2023-02-19T07:17:15.109Z,7.63
2023-02-19T07:20:19.356Z,7.47
2023-02-19T07:23:23.317Z,7.55
2023-02-19T07:26:27.193Z,7.23
2023-02-19T07:29:31.166Z,7.47
2023-02-19T07:32:35.292Z,7.40
2023-02-19T07:35:39.171Z,7.10
2023-02-19T07:38:43.127Z,7.07
2023-02-19T07:41:47.092Z,7.10
2023-02-19T07:44:50.946Z,7.21
2023-02-19T07:47:54.940Z,7.11
2023-02-19T07:50:58.929Z,6.97
2023-02-19T07:54:03.077Z,6.96
2023-02-19T07:57:06.853Z,6.88
2023-02-19T08:00:10.859Z,7.00
2023-02-19T08:03:14.760Z,7.01
2023-02-19T08:06:18.728Z,6.74
2023-02-19T08:09:22.536Z,6.92
2023-02-19T08:12:26.492Z,7.11
2023-02-19T08:15:30.278Z,7.48
2023-02-19T08:18:34.238Z,7.00
2023-02-19T08:21:38.303Z,7.24
2023-02-19T08:24:42.149Z,7.28
2023-02-19T08:27:46.468Z,6.51
2023-02-19T08:30:50.489Z,6.80
2023-02-19T08:33:54.353Z,6.74
2023-02-19T08:36:58.212Z,6.53
2023-02-19T08:40:02.280Z,6.77
2023-02-19T08:43:06.385Z,6.93
2023-02-19T08:46:10.498Z,6.69
2023-02-19T08:49:14.614Z,6.58
2023-02-19T08:52:18.497Z,6.67
2023-02-19T08:55:22.585Z,6.73
2023-02-19T08:58:26.389Z,6.47
2023-02-19T09:01:30.116Z,7.27
2023-02-19T09:04:34.085Z,7.68
2023-02-19T09:07:38.043Z,7.22
2023-02-19T09:10:42.193Z,6.95
2023-02-19T09:13:46.083Z,7.01
2023-02-19T09:16:49.989Z,6.99
2023-02-19T09:19:54.090Z,6.99
2023-02-19T09:22:58.150Z,6.96
2023-02-19T09:26:02.043Z,6.73
2023-02-19T09:29:06.013Z,6.79
2023-02-19T09:32:10.269Z,6.39
2023-02-19T09:35:14.444Z,6.35
2023-02-19T09:38:18.620Z,6.12
2023-02-19T09:41:22.093Z,6.15
2023-02-19T09:44:26.058Z,6.01
2023-02-19T09:47:30.231Z,6.19
2023-02-19T09:50:34.203Z,6.16
2023-02-19T09:53:38.293Z,6.00
2023-02-19T09:56:42.518Z,5.85
2023-02-19T09:59:46.558Z,5.41
2023-02-19T10:02:50.654Z,5.74
2023-02-19T10:05:54.737Z,6.17
2023-02-19T10:08:58.620Z,6.38
2023-02-19T10:12:02.605Z,7.38
2023-02-19T10:15:06.555Z,7.20
2023-02-19T10:18:11.306Z,7.22
2023-02-19T10:21:15.681Z,7.46
2023-02-19T10:24:19.629Z,7.12
2023-02-19T10:27:23.422Z,6.92
2023-02-19T10:30:27.555Z,6.91
2023-02-19T10:33:31.373Z,7.30
2023-02-19T10:36:35.501Z,7.10
2023-02-19T10:39:39.426Z,7.16
2023-02-19T10:42:43.528Z,7.60
2023-02-19T10:45:47.683Z,7.91
2023-02-19T10:48:51.597Z,7.47
2023-02-19T10:51:55.479Z,7.35
2023-02-19T10:54:59.286Z,7.57
2023-02-19T10:58:03.317Z,7.88
2023-02-19T11:01:07.338Z,7.86
2023-02-19T11:04:11.204Z,7.77
2023-02-19T11:07:15.348Z,7.88
2023-02-19T11:10:19.380Z,7.60
2023-02-19T11:13:23.530Z,8.02
2023-02-19T11:16:27.605Z,7.84
2023-02-19T11:19:31.216Z,7.71
2023-02-19T11:22:35.358Z,7.74
2023-02-19T11:25:39.644Z,7.77
2023-02-19T11:28:43.462Z,7.73
2023-02-19T11:31:47.432Z,7.73
2023-02-19T11:34:51.256Z,7.79
2023-02-19T11:37:55.264Z,7.96
2023-02-19T11:40:59.374Z,7.87
2023-02-19T11:44:03.363Z,8.07
2023-02-19T11:47:07.275Z,8.33
2023-02-19T11:50:11.177Z,8.43
2023-02-19T11:53:15.277Z,8.44
2023-02-19T11:56:19.241Z,8.47
2023-02-19T11:59:23.159Z,8.37
2023-02-19T12:02:27.112Z,8.51
2023-02-19T12:05:30.997Z,8.20
2023-02-19T12:08:35.174Z,8.19
2023-02-19T12:11:39.349Z,8.10
2023-02-19T12:14:43.482Z,7.92
2023-02-19T12:17:47.283Z,6.33
2023-02-19T12:20:51.290Z,6.48
2023-02-19T12:23:55.085Z,6.44
2023-02-19T12:26:59.342Z,9.06
2023-02-19T12:30:03.301Z,9.24
2023-02-19T12:33:07.289Z,8.80
2023-02-19T12:36:11.638Z,9.35
2023-02-19T12:39:15.833Z,8.63
2023-02-19T12:42:19.729Z,8.24
2023-02-19T12:45:23.405Z,7.81
2023-02-19T12:48:27.544Z,6.32
2023-02-19T12:51:31.561Z,7.25
2023-02-19T12:54:35.354Z,7.94
2023-02-19T12:57:39.416Z,8.82
2023-02-19T13:00:44.464Z,7.27
2023-02-19T13:03:48.364Z,7.02
2023-02-19T13:06:52.415Z,7.52
2023-02-19T13:09:56.370Z,9.16
2023-02-19T13:13:00.233Z,9.44
2023-02-19T13:16:04.293Z,9.80
2023-02-19T13:19:08.354Z,9.05
2023-02-19T13:22:12.408Z,8.01
2023-02-19T13:25:16.354Z,7.29
2023-02-19T13:28:20.386Z,6.51
2023-02-19T13:31:26.109Z,5.27
2023-02-19T13:34:30.248Z,4.79
2023-02-19T13:37:33.958Z,5.48
2023-02-19T13:40:37.704Z,5.19
2023-02-19T13:43:41.850Z,4.84
2023-02-19T13:46:46.151Z,4.34
2023-02-19T13:49:52.236Z,5.23
2023-02-19T13:52:59.123Z,6.99
2023-02-19T13:56:03.346Z,7.50
2023-02-19T13:59:07.032Z,6.49
2023-02-19T14:02:11.021Z,6.65
2023-02-19T14:05:15.246Z,6.74
2023-02-19T14:08:19.112Z,6.80
2023-02-19T14:11:22.844Z,7.19
2023-02-19T14:14:26.865Z,7.27
2023-02-19T14:17:31.071Z,7.35
2023-02-19T14:20:35.152Z,7.01
2023-02-19T14:23:39.057Z,7.28
2023-02-19T14:26:43.097Z,6.85
2023-02-19T14:29:47.044Z,7.03
2023-02-19T14:32:54.511Z,6.50
2023-02-19T14:35:59.037Z,6.25
2023-02-19T14:39:02.949Z,6.23
2023-02-19T14:42:06.808Z,5.78
2023-02-19T14:45:10.872Z,5.62
2023-02-19T14:48:15.358Z,5.64
2023-02-19T14:51:19.461Z,7.03
2023-02-19T14:54:23.491Z,6.30
2023-02-19T14:57:27.447Z,7.25
2023-02-19T15:00:31.614Z,6.52
2023-02-19T15:03:35.799Z,5.93
2023-02-19T15:06:39.861Z,5.64
2023-02-19T15:09:43.946Z,5.00
2023-02-19T15:12:47.846Z,4.62
2023-02-19T15:15:51.948Z,4.77
2023-02-19T15:18:55.996Z,5.15
2023-02-19T15:22:00.178Z,5.47
2023-02-19T15:25:03.894Z,5.13
2023-02-19T15:28:07.876Z,4.90
2023-02-19T15:31:12.165Z,4.81
2023-02-19T15:34:16.288Z,4.30
2023-02-19T15:37:20.182Z,4.05
2023-02-19T15:40:24.152Z,4.13
2023-02-19T15:43:27.974Z,3.95
2023-02-19T15:46:32.116Z,3.98
2023-02-19T15:49:35.970Z,3.63
2023-02-19T15:52:39.760Z,3.41
2023-02-19T15:55:43.604Z,3.46
2023-02-19T15:58:47.796Z,3.51
2023-02-19T16:01:51.939Z,3.25
2023-02-19T16:04:55.907Z,2.92
2023-02-19T16:07:59.892Z,2.27
2023-02-19T16:11:03.887Z,1.28
2023-02-19T16:14:07.812Z,0.99
2023-02-19T16:17:11.623Z,0.95
2023-02-19T16:20:15.451Z,0.98
2023-02-19T16:23:19.759Z,1.11
2023-02-19T16:26:24.037Z,1.00
2023-02-19T16:29:28.188Z,1.18
2023-02-19T16:32:32.135Z,1.17
2023-02-19T16:35:36.060Z,0.96
2023-02-19T16:38:39.936Z,1.03
2023-02-19T16:41:43.761Z,0.92
2023-02-19T16:44:47.612Z,1.02
2023-02-19T16:47:51.474Z,0.85
2023-02-19T16:50:55.776Z,1.14
2023-02-19T16:53:59.685Z,0.99
2023-02-19T16:57:03.732Z,1.06
2023-02-19T17:00:07.776Z,0.84
2023-02-19T17:03:11.671Z,1.02
2023-02-19T17:06:15.698Z,1.16
2023-02-19T17:09:19.638Z,0.91
2023-02-19T17:12:23.260Z,0.97
2023-02-19T17:15:27.972Z,0.88
2023-02-19T17:18:31.955Z,0.93
2023-02-19T17:21:35.808Z,0.86
2023-02-19T17:24:39.976Z,0.88
2023-02-19T17:27:43.610Z,0.94
2023-02-19T17:30:49.365Z,0.88
2023-02-19T17:33:53.596Z,0.96
2023-02-19T17:36:57.423Z,0.92
2023-02-19T17:40:01.619Z,1.00
2023-02-19T17:43:05.507Z,0.90
2023-02-19T17:46:09.335Z,0.89
2023-02-19T17:49:13.571Z,0.93
2023-02-19T17:52:17.450Z,0.90
2023-02-19T17:55:22.783Z,0.94
2023-02-19T17:58:27.717Z,0.95
2023-02-19T18:01:31.706Z,0.99
2023-02-19T18:04:37.009Z,0.90
2023-02-19T18:07:42.904Z,1.03
2023-02-19T18:10:47.347Z,1.03
2023-02-19T18:13:51.542Z,1.14
2023-02-19T18:16:55.465Z,1.33
2023-02-19T18:19:59.690Z,1.33
2023-02-19T18:23:03.612Z,1.27
2023-02-19T18:26:07.586Z,1.28
2023-02-19T18:29:11.991Z,1.37
2023-02-19T18:32:18.786Z,1.21
2023-02-19T18:35:22.797Z,1.18
2023-02-19T18:38:29.071Z,1.31
2023-02-19T18:41:56.169Z,1.14
2023-02-19T18:44:58.243Z,1.16
2023-02-19T18:48:02.021Z,1.18
2023-02-19T18:51:05.786Z,1.23
2023-02-19T18:54:09.908Z,1.13
2023-02-19T18:57:13.569Z,1.21
2023-02-19T19:00:17.862Z,1.91
2023-02-19T19:03:22.312Z,1.32
2023-02-19T19:06:26.224Z,1.19
2023-02-19T19:09:30.152Z,1.30
2023-02-19T19:12:34.325Z,1.38
2023-02-19T19:15:38.425Z,1.36
2023-02-19T19:18:42.631Z,1.44
2023-02-19T19:21:46.609Z,1.40
2023-02-19T19:24:50.349Z,1.32
2023-02-19T19:27:54.138Z,1.79
2023-02-19T19:31:01.544Z,1.56
2023-02-19T19:34:05.834Z,1.81
2023-02-19T19:37:09.737Z,1.80
2023-02-19T19:40:13.386Z,1.75
2023-02-19T19:43:17.492Z,1.74
2023-02-19T19:46:21.936Z,1.83
2023-02-19T19:49:26.145Z,1.55
2023-02-19T19:52:29.991Z,1.76
2023-02-19T19:55:33.721Z,1.69
2023-02-19T19:58:37.672Z,1.73
2023-02-19T20:01:41.587Z,1.85
2023-02-19T20:04:45.568Z,1.78
2023-02-19T20:07:49.517Z,1.63
2023-02-19T20:10:53.377Z,1.73
2023-02-19T20:13:57.272Z,1.93
2023-02-19T20:17:01.589Z,1.80
2023-02-19T20:20:05.428Z,1.72
2023-02-19T20:23:09.271Z,1.74
2023-02-19T20:26:13.266Z,1.62
2023-02-19T20:29:17.224Z,1.47
2023-02-19T20:32:21.315Z,1.57
2023-02-19T20:35:26.485Z,1.75
2023-02-19T20:38:30.677Z,1.65
2023-02-19T20:41:35.001Z,1.69
2023-02-19T20:44:38.881Z,1.93
2023-02-19T20:47:42.499Z,1.57
2023-02-19T20:50:46.581Z,1.63
2023-02-19T20:53:51.125Z,1.77
2023-02-19T20:56:55.155Z,2.67
2023-02-19T20:59:59.288Z,2.74
2023-02-19T21:03:03.579Z,3.23
2023-02-19T21:06:07.502Z,3.42
2023-02-19T21:09:11.687Z,3.71
2023-02-19T21:12:15.991Z,3.24
2023-02-19T21:15:20.015Z,3.06
2023-02-19T21:18:24.084Z,2.52
2023-02-19T21:21:28.002Z,2.21
2023-02-19T21:24:32.434Z,2.11
2023-02-19T21:27:36.447Z,2.05
2023-02-19T21:30:41.707Z,2.00
2023-02-19T21:33:45.851Z,1.64
2023-02-19T21:36:49.606Z,1.44
2023-02-19T21:39:54.027Z,1.57
2023-02-19T21:42:58.198Z,1.75
2023-02-19T21:46:02.403Z,2.46
2023-02-19T21:49:06.636Z,2.22
2023-02-19T21:52:10.807Z,2.35
2023-02-19T21:55:15.160Z,2.29
2023-02-19T21:58:19.308Z,2.58
2023-02-19T22:01:23.049Z,1.78
2023-02-19T22:04:29.270Z,2.09
2023-02-19T22:07:33.446Z,2.59
2023-02-19T22:10:37.368Z,2.64
2023-02-19T22:13:41.592Z,3.26
2023-02-19T22:16:45.356Z,3.00
2023-02-19T22:19:49.394Z,3.13
2023-02-19T22:22:53.356Z,2.93
2023-02-19T22:25:57.270Z,2.40
2023-02-19T22:29:01.411Z,2.26
2023-02-19T22:32:06.691Z,2.04
2023-02-19T22:35:15.692Z,1.96
2023-02-19T22:38:19.936Z,2.37
2023-02-19T22:41:23.696Z,2.87
2023-02-19T22:44:27.860Z,2.68
2023-02-19T22:47:34.021Z,2.16
2023-02-19T22:50:37.987Z,2.12
2023-02-19T22:53:43.052Z,2.02
2023-02-19T22:56:47.314Z,2.18
2023-02-19T22:59:51.607Z,2.80
2023-02-19T23:02:56.360Z,2.50
2023-02-19T23:06:00.463Z,1.89
2023-02-19T23:09:04.347Z,1.86
2023-02-19T23:12:08.278Z,2.13
2023-02-19T23:15:13.647Z,1.94
2023-02-19T23:18:17.825Z,1.99
2023-02-19T23:21:21.357Z,2.00
2023-02-19T23:24:25.391Z,1.74
2023-02-19T23:27:29.787Z,1.52
2023-02-19T23:30:33.788Z,1.55
2023-02-19T23:33:37.760Z,1.59
2023-02-19T23:36:41.820Z,1.54
2023-02-19T23:39:45.752Z,1.54
2023-02-19T23:42:49.669Z,1.41
2023-02-19T23:45:53.967Z,1.45
2023-02-19T23:48:57.928Z,1.47
2023-02-19T23:52:01.830Z,1.41
2023-02-19T23:55:05.830Z,1.55
2023-02-19T23:58:09.946Z,1.33
